Time;durP1;ratioP1;P1;durP2;ratioP2;P2;SDS_P1;SDS_P2;PMS_P1;PMS_P2;Temp;Humidity;BMP_temperature;BMP_pressure;BME280_temperature;BME280_humidity;BME280_pressure;Samples;Min_cycle;Max_cycle;Signal;HPM_P1;HPM_P2
2022/03/18 00:00:54;;;;;;;;;19.25;17.25;;;;;-146.25;100.00;57879.81;5035782;28;45418;-72
2022/03/18 00:03:19;;;;;;;;;22.50;20.25;;;;;-146.25;100.00;57879.81;5037832;28;46082;-74
2022/03/18 00:05:45;;;;;;;;;19.25;16.25;;;;;-146.25;100.00;57879.81;5037489;28;45403;-73
2022/03/18 00:08:11;;;;;;;;;21.75;17.75;;;;;-146.25;100.00;57879.81;5037644;28;45317;-73
2022/03/18 00:10:36;;;;;;;;;23.00;19.00;;;;;-146.25;100.00;57879.81;5050202;28;45517;-71
2022/03/18 00:13:02;;;;;;;;;19.25;18.25;;;;;-146.25;100.00;57879.81;5034661;28;46146;-74
2022/03/18 00:15:28;;;;;;;;;21.00;19.25;;;;;-146.25;100.00;57879.81;5037346;28;45557;-74
2022/03/18 00:17:55;;;;;;;;;19.00;18.00;;;;;-146.25;100.00;57879.81;5035934;28;45329;-75
2022/03/18 00:20:21;;;;;;;;;23.00;20.25;;;;;-146.25;100.00;57879.81;5049642;28;45575;-72
2022/03/18 00:22:48;;;;;;;;;17.75;17.00;;;;;-146.25;100.00;57879.81;5035632;28;46566;-77
2022/03/18 00:25:15;;;;;;;;;18.25;18.00;;;;;-146.25;100.00;57879.81;5037284;28;45547;-73
2022/03/18 00:27:42;;;;;;;;;25.00;19.25;;;;;-146.25;100.00;57879.81;5052397;28;45427;-72
2022/03/18 00:30:12;;;;;;;;;18.50;17.50;;;;;-146.25;100.00;57879.81;5037447;28;45505;-74
2022/03/18 00:32:39;;;;;;;;;19.75;17.50;;;;;-146.25;100.00;57879.81;5035923;28;47784;-75
2022/03/18 00:35:07;;;;;;;;;20.25;18.25;;;;;-146.25;100.00;57879.81;5036744;28;45615;-76
2022/03/18 00:37:33;;;;;;;;;24.00;19.00;;;;;-146.25;100.00;57879.81;5035357;28;46106;-72
2022/03/18 00:39:59;;;;;;;;;22.50;18.50;;;;;-146.25;100.00;57879.81;5037451;28;45498;-75
2022/03/18 00:42:24;;;;;;;;;24.50;20.75;;;;;-146.25;100.00;57879.81;5036775;28;45435;-76
2022/03/18 00:44:50;;;;;;;;;22.75;18.50;;;;;-146.25;100.00;57879.81;5036759;28;45440;-76
2022/03/18 00:52:44;;;;;;;;;27.25;22.50;;;;;-146.25;100.00;57879.81;5037224;28;45698;-72
2022/03/18 00:55:10;;;;;;;;;23.00;15.75;;;;;-146.25;100.00;57879.81;5036461;28;45422;-72
2022/03/18 00:57:36;;;;;;;;;20.25;19.00;;;;;-146.25;100.00;57879.81;5037100;28;45655;-74
2022/03/18 01:00:04;;;;;;;;;19.25;19.00;;;;;-146.25;100.00;57879.81;5037354;28;45752;-73
2022/03/18 01:02:30;;;;;;;;;21.75;17.75;;;;;-146.25;100.00;57879.81;5035178;28;47165;-72
2022/03/18 01:04:55;;;;;;;;;23.25;20.25;;;;;-146.25;100.00;57879.81;5020625;28;45341;-76
2022/03/18 01:07:21;;;;;;;;;21.25;20.25;;;;;-146.25;100.00;57879.81;5035802;28;45537;-76
2022/03/18 01:09:46;;;;;;;;;21.50;16.75;;;;;-146.25;100.00;57879.81;5035638;28;45442;-73
2022/03/18 01:12:12;;;;;;;;;26.75;20.25;;;;;-146.25;100.00;57879.81;5036756;28;46554;-72
2022/03/18 01:14:37;;;;;;;;;23.25;20.50;;;;;-146.25;100.00;57879.81;5036674;28;45445;-74
2022/03/18 01:17:04;;;;;;;;;22.75;20.00;;;;;-146.25;100.00;57879.81;5036265;28;45513;-74
2022/03/18 01:19:29;;;;;;;;;21.75;18.75;;;;;-146.25;100.00;57879.81;5036849;28;45316;-76
2022/03/18 01:21:55;;;;;;;;;17.50;17.00;;;;;-146.25;100.00;57879.81;5036162;28;45543;-75
2022/03/18 01:24:20;;;;;;;;;19.75;18.00;;;;;-146.25;100.00;57879.81;5036571;28;45689;-75
2022/03/18 01:26:46;;;;;;;;;20.00;18.00;;;;;-146.25;100.00;57879.81;5035597;28;45408;-72
2022/03/18 01:29:12;;;;;;;;;23.00;19.00;;;;;-146.25;100.00;57879.81;5036972;28;45504;-72
2022/03/18 01:31:37;;;;;;;;;21.50;16.00;;;;;-146.25;100.00;57879.81;5035127;28;46841;-76
2022/03/18 01:34:03;;;;;;;;;18.00;17.25;;;;;-146.25;100.00;57879.81;5035804;28;45540;-72
2022/03/18 01:36:29;;;;;;;;;20.00;18.00;;;;;-146.25;100.00;57879.81;5036087;28;45939;-77
2022/03/18 01:38:55;;;;;;;;;18.00;16.75;;;;;-146.25;100.00;57879.81;5036279;28;45501;-72
2022/03/18 01:41:21;;;;;;;;;18.50;14.25;;;;;-146.25;100.00;57879.81;5035887;28;46326;-72
2022/03/18 01:43:48;;;;;;;;;22.25;18.00;;;;;-146.25;100.00;57879.81;5035929;28;45369;-73
2022/03/18 01:46:16;;;;;;;;;20.50;19.25;;;;;-146.25;100.00;57879.81;5025188;28;45521;-72
2022/03/18 01:48:41;;;;;;;;;20.50;15.00;;;;;-146.25;100.00;57879.81;5033004;28;46225;-72
2022/03/18 01:51:08;;;;;;;;;19.50;17.75;;;;;-146.25;100.00;57879.81;5035835;28;45363;-72
2022/03/18 01:53:35;;;;;;;;;20.00;19.75;;;;;-146.25;100.00;57879.81;5035650;28;45595;-76
2022/03/18 01:56:01;;;;;;;;;18.25;16.50;;;;;-146.25;100.00;57879.81;5035449;28;45477;-72
2022/03/18 01:58:27;;;;;;;;;21.50;18.00;;;;;-146.25;100.00;57879.81;5035875;28;45507;-73
2022/03/18 02:00:54;;;;;;;;;20.25;18.00;;;;;-146.25;100.00;57879.81;5036174;28;45568;-72
2022/03/18 02:03:20;;;;;;;;;19.75;16.00;;;;;-146.25;100.00;57879.81;5035570;28;45581;-72
2022/03/18 02:05:46;;;;;;;;;19.00;17.25;;;;;-146.25;100.00;57879.81;5035913;28;45358;-75
2022/03/18 02:08:15;;;;;;;;;18.00;16.50;;;;;-146.25;100.00;57879.81;5036297;28;45493;-72
2022/03/18 02:10:42;;;;;;;;;20.50;17.25;;;;;-146.25;100.00;57879.81;5035514;28;45521;-77
2022/03/18 02:13:07;;;;;;;;;21.00;18.00;;;;;-146.25;100.00;57879.81;5035654;28;45420;-72
2022/03/18 02:15:33;;;;;;;;;24.25;19.75;;;;;-146.25;100.00;57879.81;5035550;28;45624;-76
2022/03/18 02:17:59;;;;;;;;;19.75;15.25;;;;;-146.25;100.00;57879.81;5036090;28;45478;-72
2022/03/18 02:20:24;;;;;;;;;19.00;16.75;;;;;-146.25;100.00;57879.81;5035406;28;45502;-72
2022/03/18 02:22:50;;;;;;;;;19.25;16.00;;;;;-146.25;100.00;57879.81;5035556;28;45715;-73
2022/03/18 02:25:16;;;;;;;;;17.50;16.50;;;;;-146.25;100.00;57879.81;5036551;28;45564;-74
2022/03/18 02:27:55;;;;;;;;;11.75;11.00;;;;;-146.25;100.00;57879.81;5035654;28;47604;-71
2022/03/18 02:30:21;;;;;;;;;24.50;17.25;;;;;-146.25;100.00;57879.81;5034467;28;46174;-72
2022/03/18 02:32:46;;;;;;;;;17.75;15.00;;;;;-146.25;100.00;57879.81;5049619;28;45461;-72
2022/03/18 02:35:12;;;;;;;;;20.50;18.00;;;;;-146.25;100.00;57879.81;5035890;28;45440;-72
2022/03/18 02:37:38;;;;;;;;;16.00;14.50;;;;;-146.25;100.00;57879.81;5035642;28;46098;-77
2022/03/18 02:40:06;;;;;;;;;19.00;16.75;;;;;-146.25;100.00;57879.81;5035098;28;45781;-77
2022/03/18 02:42:31;;;;;;;;;18.25;15.25;;;;;-146.25;100.00;57879.81;5034206;28;45585;-74
2022/03/18 02:44:57;;;;;;;;;17.50;16.00;;;;;-146.25;100.00;57879.81;5035147;28;45470;-76
2022/03/18 02:47:24;;;;;;;;;19.25;16.75;;;;;-146.25;100.00;57879.81;5038817;28;45542;-74
2022/03/18 02:49:50;;;;;;;;;18.00;17.50;;;;;-146.25;100.00;57879.81;5038846;28;45474;-72
2022/03/18 02:52:15;;;;;;;;;18.25;16.50;;;;;-146.25;100.00;57879.81;5038727;28;45446;-76
2022/03/18 02:54:42;;;;;;;;;17.75;16.50;;;;;-146.25;100.00;57879.81;5038844;28;45474;-76
2022/03/18 02:57:08;;;;;;;;;19.50;15.75;;;;;-146.25;100.00;57879.81;5038821;28;45425;-76
2022/03/18 02:59:33;;;;;;;;;17.50;15.00;;;;;-146.25;100.00;57879.81;5038704;28;46500;-71
2022/03/18 03:01:59;;;;;;;;;18.25;16.75;;;;;-146.25;100.00;57879.81;5038536;28;45801;-72
2022/03/18 03:04:25;;;;;;;;;18.25;16.50;;;;;-146.25;100.00;57879.81;5054110;28;45494;-72
2022/03/18 03:09:34;;;;;;;;;19.25;17.25;;;;;-146.25;100.00;57879.81;5038875;28;45893;-76
2022/03/18 03:12:00;;;;;;;;;18.25;15.50;;;;;-146.25;100.00;57879.81;5038396;28;45850;-74
2022/03/18 03:14:25;;;;;;;;;19.25;14.75;;;;;-146.25;100.00;57879.81;5054026;28;45460;-72
2022/03/18 03:16:51;;;;;;;;;18.00;15.25;;;;;-146.25;100.00;57879.81;5038504;28;45634;-73
2022/03/18 03:19:16;;;;;;;;;19.75;15.75;;;;;-146.25;100.00;57879.81;5038420;28;45635;-72
2022/03/18 03:21:42;;;;;;;;;16.75;13.50;;;;;-146.25;100.00;57879.81;5024256;28;45724;-77
2022/03/18 03:24:08;;;;;;;;;19.75;17.25;;;;;-146.25;100.00;57879.81;5038091;28;45605;-77
2022/03/18 03:26:34;;;;;;;;;18.00;16.50;;;;;-146.25;100.00;57879.81;5038662;28;45792;-71
2022/03/18 03:29:00;;;;;;;;;15.25;12.75;;;;;-146.25;100.00;57879.81;5036450;28;45562;-72
2022/03/18 03:31:26;;;;;;;;;27.75;19.50;;;;;-146.25;100.00;57879.81;5039252;28;45438;-76
2022/03/18 03:33:52;;;;;;;;;14.75;13.00;;;;;-146.25;100.00;57879.81;5037302;28;45289;-72
2022/03/18 03:36:18;;;;;;;;;20.00;17.25;;;;;-146.25;100.00;57879.81;5038495;28;45372;-72
2022/03/18 03:38:43;;;;;;;;;23.25;17.00;;;;;-146.25;100.00;57879.81;5037757;28;45410;-72
2022/03/18 03:41:09;;;;;;;;;15.50;13.00;;;;;-146.25;100.00;57879.81;5037624;28;45428;-73
2022/03/18 03:43:35;;;;;;;;;18.50;17.00;;;;;-146.25;100.00;57879.81;5038892;28;45399;-71
2022/03/18 03:46:00;;;;;;;;;23.25;17.00;;;;;-146.25;100.00;57879.81;5039179;28;45501;-72
2022/03/18 03:48:26;;;;;;;;;18.75;17.50;;;;;-146.25;100.00;57879.81;5038484;28;46536;-71
2022/03/18 03:50:52;;;;;;;;;19.50;16.75;;;;;-146.25;100.00;57879.81;5037044;28;45487;-71
2022/03/18 03:53:17;;;;;;;;;17.00;17.00;;;;;-146.25;100.00;57879.81;5038938;28;45391;-72
2022/03/18 03:55:43;;;;;;;;;18.00;17.00;;;;;-146.25;100.00;57879.81;5038325;28;45580;-71
2022/03/18 03:58:09;;;;;;;;;18.50;15.25;;;;;-146.25;100.00;57879.81;5037310;28;46240;-73
2022/03/18 04:00:36;;;;;;;;;17.00;14.25;;;;;-146.25;100.00;57879.81;5038683;28;45462;-72
2022/03/18 04:03:05;;;;;;;;;17.00;15.00;;;;;-146.25;100.00;57879.81;5038412;28;45363;-72
2022/03/18 04:05:32;;;;;;;;;19.75;16.75;;;;;-146.25;100.00;57879.81;5038120;28;45327;-72
2022/03/18 04:07:58;;;;;;;;;16.00;14.00;;;;;-146.25;100.00;57879.81;5035874;28;46790;-72
2022/03/18 04:10:24;;;;;;;;;17.50;15.75;;;;;-146.25;100.00;57879.81;5028598;28;45626;-72
2022/03/18 04:12:49;;;;;;;;;19.25;17.00;;;;;-146.25;100.00;57879.81;5029525;28;45451;-72
2022/03/18 04:15:15;;;;;;;;;22.50;18.00;;;;;-146.25;100.00;57879.81;5037864;28;45429;-71
2022/03/18 04:17:45;;;;;;;;;18.50;16.00;;;;;-146.25;100.00;57879.81;5035554;28;46843;-71
2022/03/18 04:20:13;;;;;;;;;16.75;16.00;;;;;-146.25;100.00;57879.81;5052808;28;45435;-71
2022/03/18 04:22:40;;;;;;;;;20.75;16.00;;;;;-146.25;100.00;57879.81;5036478;28;45902;-72
2022/03/18 04:25:06;;;;;;;;;16.00;14.25;;;;;-146.25;100.00;57879.81;5037858;28;45436;-76
2022/03/18 04:27:33;;;;;;;;;16.00;13.25;;;;;-146.25;100.00;57879.81;5035857;28;47801;-72
2022/03/18 04:29:58;;;;;;;;;21.75;18.50;;;;;-146.25;100.00;57879.81;5038015;28;45265;-71
2022/03/18 04:32:24;;;;;;;;;37.00;34.25;;;;;-146.25;100.00;57879.81;5037794;28;45516;-72
2022/03/18 04:34:50;;;;;;;;;25.75;24.25;;;;;-146.25;100.00;57879.81;5038461;28;45358;-77
2022/03/18 04:37:15;;;;;;;;;26.25;23.00;;;;;-146.25;100.00;57879.81;5036256;28;45392;-71
2022/03/18 04:39:41;;;;;;;;;22.00;17.75;;;;;-146.25;100.00;57879.81;5036831;28;45521;-74
2022/03/18 04:42:07;;;;;;;;;22.00;19.25;;;;;-146.25;100.00;57879.81;5036896;28;45470;-76
2022/03/18 04:44:33;;;;;;;;;21.25;17.75;;;;;-146.25;100.00;57879.81;5037552;28;45355;-72
2022/03/18 04:46:58;;;;;;;;;16.50;15.75;;;;;-146.25;100.00;57879.81;5036902;28;45660;-72
2022/03/18 04:49:24;;;;;;;;;20.25;18.00;;;;;-146.25;100.00;57879.81;5036300;28;46113;-72
2022/03/18 04:51:49;;;;;;;;;19.00;19.00;;;;;-146.25;100.00;57879.81;5038070;28;45440;-71
2022/03/18 04:54:15;;;;;;;;;18.25;16.75;;;;;-146.25;100.00;57879.81;5037908;28;45588;-71
2022/03/18 04:59:25;;;;;;;;;15.75;14.25;;;;;-146.25;100.00;57879.81;5037503;28;45350;-72
2022/03/18 05:01:50;;;;;;;;;17.00;16.00;;;;;-146.25;100.00;57879.81;5037385;28;45509;-76
2022/03/18 05:04:16;;;;;;;;;18.50;17.00;;;;;-146.25;100.00;57879.81;5037475;28;45331;-72
2022/03/18 05:06:42;;;;;;;;;23.00;17.25;;;;;-146.25;100.00;57879.81;5036324;28;45517;-71
2022/03/18 05:09:07;;;;;;;;;22.00;17.00;;;;;-146.25;100.00;57879.81;5035716;28;45549;-76
2022/03/18 05:11:33;;;;;;;;;21.25;17.50;;;;;-146.25;100.00;57879.81;5036542;28;45411;-76
2022/03/18 05:13:59;;;;;;;;;19.25;16.00;;;;;-146.25;100.00;57879.81;5036298;28;45375;-75
2022/03/18 05:16:28;;;;;;;;;20.00;18.50;;;;;-146.25;100.00;57879.81;5051732;28;45565;-71
2022/03/18 05:18:53;;;;;;;;;17.00;15.50;;;;;-146.25;100.00;57879.81;5035133;28;45478;-71
2022/03/18 05:21:22;;;;;;;;;18.00;17.75;;;;;-146.25;100.00;57879.81;5036258;28;45525;-71
2022/03/18 05:23:47;;;;;;;;;16.00;13.00;;;;;-146.25;100.00;57879.81;5036493;28;45548;-76
2022/03/18 05:26:13;;;;;;;;;17.25;15.50;;;;;-146.25;100.00;57879.81;5035617;28;46107;-72
2022/03/18 05:28:39;;;;;;;;;16.25;15.75;;;;;-146.25;100.00;57879.81;5036515;28;45394;-71
2022/03/18 05:31:05;;;;;;;;;16.00;14.25;;;;;-146.25;100.00;57879.81;5036564;28;45668;-72
2022/03/18 05:33:30;;;;;;;;;18.50;17.50;;;;;-146.25;100.00;57879.81;5031933;28;45319;-72
2022/03/18 05:35:56;;;;;;;;;17.25;15.75;;;;;-146.25;100.00;57879.81;5036596;28;46057;-73
2022/03/18 05:38:22;;;;;;;;;20.00;18.00;;;;;-146.25;100.00;57879.81;5035060;28;45462;-75
2022/03/18 05:40:47;;;;;;;;;19.00;17.00;;;;;-146.25;100.00;57879.81;5033946;28;45647;-72
2022/03/18 05:43:13;;;;;;;;;19.25;14.50;;;;;-146.25;100.00;57879.81;5035622;28;45544;-75
2022/03/18 05:45:39;;;;;;;;;17.50;15.50;;;;;-146.25;100.00;57879.81;5034710;28;45711;-75
2022/03/18 05:48:07;;;;;;;;;22.75;21.50;;;;;-146.25;100.00;57879.81;5033299;28;45614;-77
2022/03/18 05:50:33;;;;;;;;;21.75;18.00;;;;;-146.25;100.00;57879.81;5033845;28;45509;-73
2022/03/18 05:52:59;;;;;;;;;18.50;16.75;;;;;-146.25;100.00;57879.81;5035262;28;45521;-74
2022/03/18 05:55:26;;;;;;;;;21.00;16.25;;;;;-146.25;100.00;57879.81;5034951;28;46169;-77
2022/03/18 05:57:55;;;;;;;;;17.50;16.25;;;;;-146.25;100.00;57879.81;5033391;28;45569;-77
2022/03/18 06:00:21;;;;;;;;;18.50;16.75;;;;;-146.25;100.00;57879.81;5034816;28;45238;-77
2022/03/18 06:02:47;;;;;;;;;16.75;15.50;;;;;-146.25;100.00;57879.81;5034254;28;45543;-71
2022/03/18 06:05:12;;;;;;;;;21.25;18.00;;;;;-146.25;100.00;57879.81;5032625;28;48021;-72
2022/03/18 06:07:39;;;;;;;;;17.75;13.50;;;;;-146.25;100.00;57879.81;5034117;28;45292;-71
2022/03/18 06:12:49;;;;;;;;;22.00;17.50;;;;;-146.25;100.00;57879.81;5034960;28;45360;-72
2022/03/18 06:15:15;;;;;;;;;17.00;16.25;;;;;-146.25;100.00;57879.81;5032567;28;46414;-76
2022/03/18 06:17:40;;;;;;;;;22.00;17.75;;;;;-146.25;100.00;57879.81;5033793;28;45273;-75
2022/03/18 06:20:06;;;;;;;;;28.25;19.00;;;;;-146.25;100.00;57879.81;5033664;28;45422;-76
2022/03/18 06:22:32;;;;;;;;;21.25;18.00;;;;;-146.25;100.00;57879.81;5037527;28;45525;-75
2022/03/18 06:24:57;;;;;;;;;19.50;17.75;;;;;-146.25;100.00;57879.81;5036215;28;46354;-77
2022/03/18 06:27:23;;;;;;;;;17.50;15.50;;;;;-146.25;100.00;57879.81;5037166;28;45446;-71
2022/03/18 06:29:48;;;;;;;;;20.25;19.75;;;;;-146.25;100.00;57879.81;5037098;28;45324;-77
2022/03/18 06:32:14;;;;;;;;;18.75;16.25;;;;;-146.25;100.00;57879.81;5037614;28;45487;-72
2022/03/18 06:34:39;;;;;;;;;21.25;17.25;;;;;-146.25;100.00;57879.81;5037022;28;45558;-77
2022/03/18 06:37:05;;;;;;;;;23.00;18.00;;;;;-146.25;100.00;57879.81;5036836;28;45666;-71
2022/03/18 06:39:31;;;;;;;;;19.75;16.00;;;;;-146.25;100.00;57879.81;5036777;28;45666;-76
2022/03/18 06:41:57;;;;;;;;;21.25;18.75;;;;;-146.25;100.00;57879.81;5051716;28;45399;-73
2022/03/18 06:44:23;;;;;;;;;23.50;19.50;;;;;-146.25;100.00;57879.81;5035896;28;46480;-71
2022/03/18 06:46:49;;;;;;;;;20.50;18.50;;;;;-146.25;100.00;57879.81;5037576;28;45572;-71
2022/03/18 06:49:15;;;;;;;;;21.00;17.75;;;;;-146.25;100.00;57879.81;5037551;28;45984;-72
2022/03/18 06:51:41;;;;;;;;;18.75;17.75;;;;;-146.25;100.00;57879.81;5037364;28;45486;-76
2022/03/18 06:54:07;;;;;;;;;20.75;20.25;;;;;-146.25;100.00;57879.81;5035767;28;46710;-72
2022/03/18 06:56:33;;;;;;;;;19.25;18.25;;;;;-146.25;100.00;57879.81;5036843;28;45600;-72
2022/03/18 06:59:00;;;;;;;;;24.00;18.00;;;;;-146.25;100.00;57879.81;5037294;28;45533;-75
2022/03/18 07:01:26;;;;;;;;;23.00;18.75;;;;;-146.25;100.00;57879.81;5037572;28;45586;-74
2022/03/18 07:03:52;;;;;;;;;20.50;18.00;;;;;-146.25;100.00;57879.81;5035652;28;46417;-72
2022/03/18 07:06:18;;;;;;;;;39.25;33.75;;;;;-146.25;100.00;57879.81;5037062;28;45554;-76
2022/03/18 07:08:43;;;;;;;;;25.00;20.75;;;;;-146.25;100.00;57879.81;5036845;28;45611;-76
2022/03/18 07:11:13;;;;;;;;;20.00;18.00;;;;;-146.25;100.00;57879.81;5035604;28;45582;-76
2022/03/18 07:13:43;;;;;;;;;20.25;17.75;;;;;-146.25;100.00;57879.81;5036819;28;46371;-72
2022/03/18 07:18:53;;;;;;;;;47.25;36.25;;;;;-146.25;100.00;57879.81;5034916;28;45485;-76
2022/03/18 07:21:19;;;;;;;;;30.50;24.50;;;;;-146.25;100.00;57879.81;5035826;28;46381;-76
2022/03/18 07:23:44;;;;;;;;;17.75;16.00;;;;;-146.25;100.00;57879.81;5035405;28;45575;-72
2022/03/18 07:26:10;;;;;;;;;26.00;24.50;;;;;-146.25;100.00;57879.81;5037334;28;46082;-77
2022/03/18 07:28:35;;;;;;;;;24.25;22.75;;;;;-146.25;100.00;57879.81;5037464;28;45536;-77
2022/03/18 07:31:01;;;;;;;;;71.75;54.00;;;;;-146.25;100.00;57879.81;5037328;28;45535;-72
2022/03/18 07:33:27;;;;;;;;;38.75;30.75;;;;;-146.25;100.00;57879.81;5037322;28;45494;-75
2022/03/18 07:35:53;;;;;;;;;57.50;47.50;;;;;-146.25;100.00;57879.81;5037153;28;45530;-76
2022/03/18 07:38:20;;;;;;;;;54.50;42.00;;;;;-146.25;100.00;57879.81;5036817;28;45525;-77
2022/03/18 07:40:46;;;;;;;;;70.50;53.00;;;;;-146.25;100.00;57879.81;5036792;28;46594;-75
2022/03/18 07:43:12;;;;;;;;;55.00;45.25;;;;;-146.25;100.00;57879.81;5038698;28;46397;-77
2022/03/18 07:45:37;;;;;;;;;40.50;35.50;;;;;-146.25;100.00;57879.81;5038401;28;45521;-77
2022/03/18 07:48:05;;;;;;;;;44.00;37.00;;;;;-146.25;100.00;57879.81;5037424;28;45451;-72
2022/03/18 07:50:33;;;;;;;;;27.75;24.25;;;;;-146.25;100.00;57879.81;5036640;28;45368;-72
2022/03/18 07:53:02;;;;;;;;;31.75;26.25;;;;;-146.25;100.00;57879.81;5038253;28;46555;-76
2022/03/18 07:55:29;;;;;;;;;28.50;23.25;;;;;-146.25;100.00;57879.81;5038410;28;45397;-78
2022/03/18 07:57:56;;;;;;;;;63.50;49.25;;;;;-146.25;100.00;57879.81;5038117;28;45520;-80
2022/03/18 08:00:22;;;;;;;;;61.75;48.00;;;;;-146.25;100.00;57879.81;5037570;28;45698;-71
2022/03/18 08:02:49;;;;;;;;;52.75;40.50;;;;;-146.25;100.00;57879.81;5049613;28;45517;-71
2022/03/18 08:05:16;;;;;;;;;34.25;26.75;;;;;-146.25;100.00;57879.81;5035437;28;45526;-74
2022/03/18 08:07:42;;;;;;;;;26.75;26.00;;;;;-146.25;100.00;57879.81;5037199;28;45386;-79
2022/03/18 08:10:09;;;;;;;;;21.00;18.50;;;;;-146.25;100.00;57879.81;5035960;28;45608;-82
2022/03/18 08:12:37;;;;;;;;;23.00;20.00;;;;;-146.25;100.00;57879.81;5037297;28;45640;-78
2022/03/18 08:15:08;;;;;;;;;22.50;22.00;;;;;-146.25;100.00;57879.81;5012687;28;45411;-74
2022/03/18 08:17:34;;;;;;;;;27.00;23.00;;;;;-146.25;100.00;57879.81;5056720;28;45560;-77
2022/03/18 08:20:00;;;;;;;;;23.50;21.25;;;;;-146.25;100.00;57879.81;5057187;28;45347;-74
2022/03/18 08:22:27;;;;;;;;;23.50;19.50;;;;;-146.25;100.00;57879.81;5056724;28;45979;-75
2022/03/18 08:24:53;;;;;;;;;20.75;18.50;;;;;-146.25;100.00;57879.81;5055261;28;45566;-74
2022/03/18 08:27:19;;;;;;;;;24.75;22.25;;;;;-146.25;100.00;57879.81;5056159;28;46976;-75
2022/03/18 08:29:48;;;;;;;;;22.50;21.00;;;;;-146.25;100.00;57879.81;5056971;28;45544;-75
2022/03/18 08:32:16;;;;;;;;;27.00;24.75;;;;;-146.25;100.00;57879.81;5056700;28;46291;-75
2022/03/18 08:34:43;;;;;;;;;24.75;22.00;;;;;-146.25;100.00;57879.81;5071825;28;45790;-72
2022/03/18 08:37:09;;;;;;;;;22.25;19.75;;;;;-146.25;100.00;57879.81;5056060;28;45866;-74
2022/03/18 08:39:41;;;;;;;;;24.50;21.50;;;;;-146.25;100.00;57879.81;5055636;28;45466;-74
2022/03/18 08:42:07;;;;;;;;;31.00;25.75;;;;;-146.25;100.00;57879.81;5055448;28;46503;-73
2022/03/18 08:44:33;;;;;;;;;28.25;24.50;;;;;-146.25;100.00;57879.81;5054552;28;45524;-74
2022/03/18 08:46:59;;;;;;;;;18.25;17.25;;;;;-146.25;100.00;57879.81;5054989;28;45539;-74
2022/03/18 08:49:25;;;;;;;;;31.75;26.00;;;;;-146.25;100.00;57879.81;5053700;28;45698;-72
2022/03/18 08:51:51;;;;;;;;;22.50;20.50;;;;;-146.25;100.00;57879.81;5055317;28;46087;-75
2022/03/18 08:54:21;;;;;;;;;27.25;22.50;;;;;-146.25;100.00;57879.81;5037716;27;45727;-77
2022/03/18 08:56:47;;;;;;;;;21.25;21.00;;;;;-146.25;100.00;57879.81;5077148;28;45459;-72
2022/03/18 08:59:13;;;;;;;;;26.75;21.25;;;;;-146.25;100.00;57879.81;5078040;28;45552;-72
2022/03/18 09:01:38;;;;;;;;;17.25;17.25;;;;;-146.25;100.00;57879.81;5076966;27;45949;-71
2022/03/18 09:04:04;;;;;;;;;22.25;21.25;;;;;-146.25;100.00;57879.81;5092467;27;45434;-71
2022/03/18 09:06:30;;;;;;;;;22.00;20.00;;;;;-146.25;100.00;57879.81;5066250;27;45432;-71
2022/03/18 09:09:03;;;;;;;;;24.50;21.25;;;;;-146.25;100.00;57879.81;5057097;28;45584;-71
2022/03/18 09:11:29;;;;;;;;;23.25;22.25;;;;;-146.25;100.00;57879.81;5070365;27;47257;-75
2022/03/18 09:13:55;;;;;;;;;27.00;25.25;;;;;-146.25;100.00;57879.81;5054277;28;45539;-72
2022/03/18 09:16:21;;;;;;;;;24.75;23.00;;;;;-146.25;100.00;57879.81;5055134;28;45592;-73
2022/03/18 09:18:47;;;;;;;;;27.75;23.25;;;;;-146.25;100.00;57879.81;5056419;28;45616;-72
2022/03/18 09:21:13;;;;;;;;;23.50;22.00;;;;;-146.25;100.00;57879.81;5065549;28;45573;-72
2022/03/18 09:23:38;;;;;;;;;21.25;18.50;;;;;-146.25;100.00;57879.81;5064703;27;45553;-72
2022/03/18 09:26:04;;;;;;;;;20.00;19.00;;;;;-146.25;100.00;57879.81;5065600;28;45604;-72
2022/03/18 09:28:31;;;;;;;;;25.50;23.00;;;;;-146.25;100.00;57879.81;5064908;28;45663;-73
2022/03/18 09:30:57;;;;;;;;;25.00;23.00;;;;;-146.25;100.00;57879.81;5061553;28;47948;-73
2022/03/18 09:33:22;;;;;;;;;25.25;21.75;;;;;-146.25;100.00;57879.81;5062492;28;45440;-74
2022/03/18 09:35:48;;;;;;;;;21.25;20.75;;;;;-146.25;100.00;57879.81;5066308;28;45365;-74
2022/03/18 09:38:13;;;;;;;;;27.00;23.50;;;;;-146.25;100.00;57879.81;5058860;28;45675;-74
2022/03/18 09:40:40;;;;;;;;;22.00;21.00;;;;;-146.25;100.00;57879.81;5054224;28;45354;-73
2022/03/18 09:43:08;;;;;;;;;24.00;21.75;;;;;-146.25;100.00;57879.81;5062559;28;45440;-72
2022/03/18 09:45:38;;;;;;;;;28.00;24.75;;;;;-146.25;100.00;57879.81;5064650;27;45359;-73
2022/03/18 09:48:10;;;;;;;;;23.25;21.50;;;;;-146.25;100.00;57879.81;5065014;28;45436;-74
2022/03/18 09:50:37;;;;;;;;;24.75;22.50;;;;;-146.25;100.00;57879.81;5064504;28;45530;-72
2022/03/18 09:53:04;;;;;;;;;25.75;21.50;;;;;-146.25;100.00;57879.81;5064156;27;45539;-73
2022/03/18 09:55:30;;;;;;;;;29.75;22.00;;;;;-146.25;100.00;57879.81;5059344;28;45747;-75
2022/03/18 09:57:56;;;;;;;;;30.25;24.25;;;;;-146.25;100.00;57879.81;5055805;28;45423;-73
2022/03/18 10:00:21;;;;;;;;;29.00;26.75;;;;;-146.25;100.00;57879.81;5055069;28;45520;-75
2022/03/18 10:03:13;;;;;;;;;30.00;27.75;;;;;-146.25;100.00;57879.81;5055319;28;45536;-74
2022/03/18 10:05:59;;;;;;;;;32.00;27.50;;;;;-146.25;100.00;57879.81;5062727;28;45876;-73
2022/03/18 10:08:45;;;;;;;;;33.75;29.00;;;;;-146.25;100.00;57879.81;5058957;28;45557;-73
2022/03/18 10:11:14;;;;;;;;;31.50;27.00;;;;;-146.25;100.00;57879.81;5063435;28;46021;-73
2022/03/18 10:13:59;;;;;;;;;24.50;22.50;;;;;-146.25;100.00;57879.81;5055169;28;46384;-72
2022/03/18 10:16:36;;;;;;;;;22.25;19.00;;;;;-146.25;100.00;57879.81;5064689;28;45366;-71
2022/03/18 10:19:08;;;;;;;;;25.00;24.25;;;;;-146.25;100.00;57879.81;5080688;27;45277;-74
2022/03/18 10:21:52;;;;;;;;;25.25;22.75;;;;;-146.25;100.00;57879.81;5054191;28;45674;-73
2022/03/18 10:24:22;;;;;;;;;32.75;24.75;;;;;-146.25;100.00;57879.81;5051909;28;45338;-72
2022/03/18 10:26:49;;;;;;;;;26.50;24.00;;;;;-146.25;100.00;57879.81;5046177;28;45705;-75
2022/03/18 10:29:15;;;;;;;;;25.50;22.25;;;;;-146.25;100.00;57879.81;5043274;28;45367;-72
2022/03/18 10:31:57;;;;;;;;;32.00;26.00;;;;;-146.25;100.00;57879.81;5063583;28;47202;-71
2022/03/18 10:37:21;;;;;;;;;27.00;25.50;;;;;-146.25;100.00;57879.81;5062814;28;45346;-74
2022/03/18 10:39:48;;;;;;;;;36.00;28.50;;;;;-146.25;100.00;57879.81;5062071;28;45568;-74
2022/03/18 10:42:21;;;;;;;;;126.33;105.00;;;;;-146.25;100.00;57879.81;5061260;28;46041;-75
2022/03/18 10:44:55;;;;;;;;;42.75;35.25;;;;;-146.25;100.00;57879.81;5078217;27;45488;-73
2022/03/18 10:47:30;;;;;;;;;38.50;34.00;;;;;-146.25;100.00;57879.81;5063656;28;45435;-73
2022/03/18 10:50:16;;;;;;;;;121.67;106.33;;;;;-146.25;100.00;57879.81;5065314;28;45397;-71
2022/03/18 10:52:47;;;;;;;;;36.75;31.50;;;;;-146.25;100.00;57879.81;5065915;28;46457;-79
2022/03/18 10:55:25;;;;;;;;;30.50;27.25;;;;;-146.25;100.00;57879.81;5066224;28;45504;-73
2022/03/18 10:57:52;;;;;;;;;31.50;28.00;;;;;-146.25;100.00;57879.81;5076218;27;45510;-76
2022/03/18 11:00:23;;;;;;;;;32.25;27.25;;;;;-146.25;100.00;57879.81;5074267;27;45362;-77
2022/03/18 11:03:00;;;;;;;;;31.50;26.75;;;;;-146.25;100.00;57879.81;5056087;28;45587;-71
2022/03/18 11:05:30;;;;;;;;;33.25;31.00;;;;;-146.25;100.00;57879.81;5055615;28;45288;-81
2022/03/18 11:07:57;;;;;;;;;32.50;27.75;;;;;-146.25;100.00;57879.81;5074493;28;45436;-71
2022/03/18 11:13:08;;;;;;;;;35.00;28.25;;;;;-146.25;100.00;57879.81;5059363;28;45800;-71
2022/03/18 11:15:36;;;;;;;;;25.75;22.75;;;;;-146.25;100.00;57879.81;5059690;28;45366;-71